sensor_id;sensor_type;location;lat;lon;timestamp;P1;durP1;ratioP1;P2;durP2;ratioP2
12554;SDS011;6343;50.868;4.700;2022-07-23T00:01:21;17.20;;;10.30;;
12554;SDS011;6343;50.868;4.700;2022-07-23T00:03:47;15.43;;;10.90;;
12554;SDS011;6343;50.868;4.700;2022-07-23T00:06:13;14.23;;;9.70;;
12554;SDS011;6343;50.868;4.700;2022-07-23T00:08:39;12.40;;;10.47;;
12554;SDS011;6343;50.868;4.700;2022-07-23T00:11:05;14.20;;;10.47;;
12554;SDS011;6343;50.868;4.700;2022-07-23T00:13:32;12.97;;;10.63;;
12554;SDS011;6343;50.868;4.700;2022-07-23T00:15:58;14.67;;;10.37;;
12554;SDS011;6343;50.868;4.700;2022-07-23T00:18:24;12.73;;;10.47;;
12554;SDS011;6343;50.868;4.700;2022-07-23T00:20:50;13.50;;;10.27;;
12554;SDS011;6343;50.868;4.700;2022-07-23T00:23:16;14.53;;;9.20;;
12554;SDS011;6343;50.868;4.700;2022-07-23T00:25:42;14.00;;;10.13;;
12554;SDS011;6343;50.868;4.700;2022-07-23T00:28:10;14.83;;;9.27;;
12554;SDS011;6343;50.868;4.700;2022-07-23T00:30:36;14.97;;;10.40;;
12554;SDS011;6343;50.868;4.700;2022-07-23T00:33:03;14.53;;;9.87;;
12554;SDS011;6343;50.868;4.700;2022-07-23T00:35:31;12.00;;;8.93;;
12554;SDS011;6343;50.868;4.700;2022-07-23T00:37:58;10.97;;;8.63;;
12554;SDS011;6343;50.868;4.700;2022-07-23T00:40:24;13.83;;;9.87;;
12554;SDS011;6343;50.868;4.700;2022-07-23T00:42:51;12.83;;;10.33;;
12554;SDS011;6343;50.868;4.700;2022-07-23T00:45:17;13.33;;;10.53;;
12554;SDS011;6343;50.868;4.700;2022-07-23T00:47:43;12.90;;;9.03;;
12554;SDS011;6343;50.868;4.700;2022-07-23T00:50:10;12.70;;;9.53;;
12554;SDS011;6343;50.868;4.700;2022-07-23T00:52:36;16.43;;;10.90;;
12554;SDS011;6343;50.868;4.700;2022-07-23T00:55:03;12.57;;;10.57;;
12554;SDS011;6343;50.868;4.700;2022-07-23T00:57:29;16.50;;;10.50;;
12554;SDS011;6343;50.868;4.700;2022-07-23T00:59:55;12.87;;;10.47;;
12554;SDS011;6343;50.868;4.700;2022-07-23T01:02:23;12.33;;;10.53;;
12554;SDS011;6343;50.868;4.700;2022-07-23T01:04:49;10.70;;;8.97;;
12554;SDS011;6343;50.868;4.700;2022-07-23T01:07:16;10.27;;;8.97;;
12554;SDS011;6343;50.868;4.700;2022-07-23T01:09:42;17.13;;;9.93;;
12554;SDS011;6343;50.868;4.700;2022-07-23T01:12:08;16.73;;;9.57;;
12554;SDS011;6343;50.868;4.700;2022-07-23T01:14:34;15.53;;;11.50;;
12554;SDS011;6343;50.868;4.700;2022-07-23T01:17:01;18.53;;;12.70;;
12554;SDS011;6343;50.868;4.700;2022-07-23T01:19:27;15.47;;;11.37;;
12554;SDS011;6343;50.868;4.700;2022-07-23T01:21:53;18.60;;;12.27;;
12554;SDS011;6343;50.868;4.700;2022-07-23T01:24:20;15.80;;;11.27;;
12554;SDS011;6343;50.868;4.700;2022-07-23T01:26:47;15.47;;;11.63;;
12554;SDS011;6343;50.868;4.700;2022-07-23T01:29:13;17.07;;;12.00;;
12554;SDS011;6343;50.868;4.700;2022-07-23T01:31:40;16.03;;;12.40;;
12554;SDS011;6343;50.868;4.700;2022-07-23T01:34:06;14.77;;;11.37;;
12554;SDS011;6343;50.868;4.700;2022-07-23T01:36:33;14.30;;;11.20;;
12554;SDS011;6343;50.868;4.700;2022-07-23T01:38:59;16.50;;;11.87;;
12554;SDS011;6343;50.868;4.700;2022-07-23T01:41:25;13.53;;;10.47;;
12554;SDS011;6343;50.868;4.700;2022-07-23T01:43:51;13.90;;;10.70;;
12554;SDS011;6343;50.868;4.700;2022-07-23T01:46:17;18.47;;;11.40;;
12554;SDS011;6343;50.868;4.700;2022-07-23T01:48:43;20.83;;;12.17;;
12554;SDS011;6343;50.868;4.700;2022-07-23T01:51:09;16.43;;;10.90;;
12554;SDS011;6343;50.868;4.700;2022-07-23T01:53:35;18.03;;;11.23;;
12554;SDS011;6343;50.868;4.700;2022-07-23T01:56:02;13.20;;;10.43;;
12554;SDS011;6343;50.868;4.700;2022-07-23T01:58:28;16.20;;;11.23;;
12554;SDS011;6343;50.868;4.700;2022-07-23T02:00:54;13.97;;;10.33;;
12554;SDS011;6343;50.868;4.700;2022-07-23T02:03:21;16.30;;;10.47;;
12554;SDS011;6343;50.868;4.700;2022-07-23T02:05:47;15.10;;;10.97;;
12554;SDS011;6343;50.868;4.700;2022-07-23T02:08:13;16.57;;;11.67;;
12554;SDS011;6343;50.868;4.700;2022-07-23T02:10:39;18.10;;;11.17;;
12554;SDS011;6343;50.868;4.700;2022-07-23T02:13:05;18.27;;;12.00;;
12554;SDS011;6343;50.868;4.700;2022-07-23T02:15:31;14.43;;;11.87;;
12554;SDS011;6343;50.868;4.700;2022-07-23T02:17:58;15.23;;;9.83;;
12554;SDS011;6343;50.868;4.700;2022-07-23T02:20:24;14.43;;;10.53;;
12554;SDS011;6343;50.868;4.700;2022-07-23T02:22:50;14.60;;;10.90;;
12554;SDS011;6343;50.868;4.700;2022-07-23T02:25:16;12.77;;;9.40;;
12554;SDS011;6343;50.868;4.700;2022-07-23T02:27:42;14.27;;;10.00;;
12554;SDS011;6343;50.868;4.700;2022-07-23T02:30:09;13.13;;;10.87;;
12554;SDS011;6343;50.868;4.700;2022-07-23T02:32:35;15.77;;;11.40;;
12554;SDS011;6343;50.868;4.700;2022-07-23T02:35:02;15.10;;;11.27;;
12554;SDS011;6343;50.868;4.700;2022-07-23T02:37:28;14.13;;;10.63;;
12554;SDS011;6343;50.868;4.700;2022-07-23T02:39:54;12.97;;;9.97;;
12554;SDS011;6343;50.868;4.700;2022-07-23T02:42:20;11.47;;;9.50;;
12554;SDS011;6343;50.868;4.700;2022-07-23T02:44:46;14.50;;;9.33;;
12554;SDS011;6343;50.868;4.700;2022-07-23T02:47:12;12.80;;;9.77;;
12554;SDS011;6343;50.868;4.700;2022-07-23T02:49:38;11.43;;;9.47;;
12554;SDS011;6343;50.868;4.700;2022-07-23T02:52:04;12.43;;;9.90;;
12554;SDS011;6343;50.868;4.700;2022-07-23T02:54:31;16.00;;;10.93;;
12554;SDS011;6343;50.868;4.700;2022-07-23T02:56:57;16.20;;;10.67;;
12554;SDS011;6343;50.868;4.700;2022-07-23T02:59:23;15.57;;;10.73;;
12554;SDS011;6343;50.868;4.700;2022-07-23T03:01:49;14.67;;;10.13;;
12554;SDS011;6343;50.868;4.700;2022-07-23T03:04:15;16.00;;;9.80;;
12554;SDS011;6343;50.868;4.700;2022-07-23T03:06:41;12.43;;;10.40;;
12554;SDS011;6343;50.868;4.700;2022-07-23T03:09:07;13.33;;;9.57;;
12554;SDS011;6343;50.868;4.700;2022-07-23T03:11:36;12.53;;;9.90;;
12554;SDS011;6343;50.868;4.700;2022-07-23T03:14:04;11.00;;;8.53;;
12554;SDS011;6343;50.868;4.700;2022-07-23T03:16:31;14.10;;;9.07;;
12554;SDS011;6343;50.868;4.700;2022-07-23T03:18:57;14.50;;;11.20;;
12554;SDS011;6343;50.868;4.700;2022-07-23T03:21:23;14.57;;;11.03;;
12554;SDS011;6343;50.868;4.700;2022-07-23T03:23:49;13.63;;;10.47;;
12554;SDS011;6343;50.868;4.700;2022-07-23T03:26:15;15.33;;;10.50;;
12554;SDS011;6343;50.868;4.700;2022-07-23T03:28:41;13.60;;;10.40;;
12554;SDS011;6343;50.868;4.700;2022-07-23T03:31:08;14.23;;;10.37;;
12554;SDS011;6343;50.868;4.700;2022-07-23T03:33:34;13.20;;;9.93;;
12554;SDS011;6343;50.868;4.700;2022-07-23T03:36:00;13.73;;;10.03;;
12554;SDS011;6343;50.868;4.700;2022-07-23T03:38:26;13.70;;;10.33;;
12554;SDS011;6343;50.868;4.700;2022-07-23T03:40:52;12.30;;;9.70;;
12554;SDS011;6343;50.868;4.700;2022-07-23T03:43:18;18.90;;;10.00;;
12554;SDS011;6343;50.868;4.700;2022-07-23T03:45:44;18.30;;;9.60;;
12554;SDS011;6343;50.868;4.700;2022-07-23T03:48:10;11.07;;;9.30;;
12554;SDS011;6343;50.868;4.700;2022-07-23T03:50:36;14.30;;;9.93;;
12554;SDS011;6343;50.868;4.700;2022-07-23T03:53:02;11.20;;;9.80;;
12554;SDS011;6343;50.868;4.700;2022-07-23T03:55:28;12.93;;;9.70;;
12554;SDS011;6343;50.868;4.700;2022-07-23T03:57:54;14.20;;;10.17;;
12554;SDS011;6343;50.868;4.700;2022-07-23T04:00:20;10.63;;;8.57;;
12554;SDS011;6343;50.868;4.700;2022-07-23T04:02:46;14.90;;;9.97;;
12554;SDS011;6343;50.868;4.700;2022-07-23T04:05:12;12.10;;;9.33;;
12554;SDS011;6343;50.868;4.700;2022-07-23T04:07:39;12.50;;;8.93;;
12554;SDS011;6343;50.868;4.700;2022-07-23T04:10:05;11.47;;;8.93;;
12554;SDS011;6343;50.868;4.700;2022-07-23T04:12:31;11.73;;;9.10;;
12554;SDS011;6343;50.868;4.700;2022-07-23T04:14:57;12.83;;;8.50;;
12554;SDS011;6343;50.868;4.700;2022-07-23T04:17:23;17.70;;;9.90;;
12554;SDS011;6343;50.868;4.700;2022-07-23T04:19:50;14.20;;;8.93;;
12554;SDS011;6343;50.868;4.700;2022-07-23T04:22:16;11.50;;;8.93;;
12554;SDS011;6343;50.868;4.700;2022-07-23T04:24:42;11.50;;;8.73;;
12554;SDS011;6343;50.868;4.700;2022-07-23T04:27:08;11.30;;;8.53;;
12554;SDS011;6343;50.868;4.700;2022-07-23T04:29:34;10.03;;;8.20;;
12554;SDS011;6343;50.868;4.700;2022-07-23T04:32:00;13.57;;;9.07;;
12554;SDS011;6343;50.868;4.700;2022-07-23T04:34:27;11.57;;;7.97;;
12554;SDS011;6343;50.868;4.700;2022-07-23T04:36:53;15.73;;;9.53;;
12554;SDS011;6343;50.868;4.700;2022-07-23T04:39:19;13.23;;;9.43;;
12554;SDS011;6343;50.868;4.700;2022-07-23T04:41:45;11.67;;;8.57;;
12554;SDS011;6343;50.868;4.700;2022-07-23T04:44:11;13.20;;;8.90;;
12554;SDS011;6343;50.868;4.700;2022-07-23T04:46:37;11.37;;;9.17;;
12554;SDS011;6343;50.868;4.700;2022-07-23T04:49:04;12.60;;;8.67;;
12554;SDS011;6343;50.868;4.700;2022-07-23T04:51:30;10.97;;;8.90;;
12554;SDS011;6343;50.868;4.700;2022-07-23T04:53:56;12.17;;;8.73;;
12554;SDS011;6343;50.868;4.700;2022-07-23T04:56:22;14.80;;;9.50;;
12554;SDS011;6343;50.868;4.700;2022-07-23T04:58:48;11.20;;;8.90;;
12554;SDS011;6343;50.868;4.700;2022-07-23T05:01:14;12.30;;;8.47;;
12554;SDS011;6343;50.868;4.700;2022-07-23T05:03:40;12.60;;;10.03;;
12554;SDS011;6343;50.868;4.700;2022-07-23T05:06:06;9.70;;;8.37;;
12554;SDS011;6343;50.868;4.700;2022-07-23T05:08:32;14.37;;;9.90;;
12554;SDS011;6343;50.868;4.700;2022-07-23T05:10:58;13.23;;;11.07;;
12554;SDS011;6343;50.868;4.700;2022-07-23T05:13:25;17.47;;;11.93;;
12554;SDS011;6343;50.868;4.700;2022-07-23T05:15:51;14.67;;;10.43;;
12554;SDS011;6343;50.868;4.700;2022-07-23T05:18:17;14.87;;;11.03;;
12554;SDS011;6343;50.868;4.700;2022-07-23T05:20:43;15.10;;;11.60;;
12554;SDS011;6343;50.868;4.700;2022-07-23T05:23:09;15.13;;;11.63;;
12554;SDS011;6343;50.868;4.700;2022-07-23T05:25:35;13.57;;;11.57;;
12554;SDS011;6343;50.868;4.700;2022-07-23T05:28:02;13.97;;;10.37;;
12554;SDS011;6343;50.868;4.700;2022-07-23T05:30:28;14.57;;;12.10;;
12554;SDS011;6343;50.868;4.700;2022-07-23T05:32:54;13.40;;;11.10;;
12554;SDS011;6343;50.868;4.700;2022-07-23T05:35:20;16.53;;;11.90;;
12554;SDS011;6343;50.868;4.700;2022-07-23T05:37:46;14.37;;;10.87;;
12554;SDS011;6343;50.868;4.700;2022-07-23T05:40:12;15.17;;;11.73;;
12554;SDS011;6343;50.868;4.700;2022-07-23T05:42:39;17.27;;;11.77;;
12554;SDS011;6343;50.868;4.700;2022-07-23T05:45:07;15.27;;;11.03;;
12554;SDS011;6343;50.868;4.700;2022-07-23T05:47:46;14.87;;;10.90;;
12554;SDS011;6343;50.868;4.700;2022-07-23T05:50:12;13.53;;;10.67;;
12554;SDS011;6343;50.868;4.700;2022-07-23T05:52:39;15.07;;;11.13;;
12554;SDS011;6343;50.868;4.700;2022-07-23T05:55:05;12.20;;;10.70;;
12554;SDS011;6343;50.868;4.700;2022-07-23T05:57:32;15.67;;;10.57;;
12554;SDS011;6343;50.868;4.700;2022-07-23T05:59:58;13.27;;;10.63;;
12554;SDS011;6343;50.868;4.700;2022-07-23T06:02:24;14.50;;;10.57;;
12554;SDS011;6343;50.868;4.700;2022-07-23T06:04:50;14.10;;;10.70;;
12554;SDS011;6343;50.868;4.700;2022-07-23T06:07:16;13.17;;;10.23;;
12554;SDS011;6343;50.868;4.700;2022-07-23T06:09:42;16.17;;;10.80;;
12554;SDS011;6343;50.868;4.700;2022-07-23T06:12:08;12.67;;;9.73;;
12554;SDS011;6343;50.868;4.700;2022-07-23T06:14:34;18.00;;;10.67;;
12554;SDS011;6343;50.868;4.700;2022-07-23T06:17:00;11.80;;;9.87;;
12554;SDS011;6343;50.868;4.700;2022-07-23T06:19:26;13.33;;;10.57;;
12554;SDS011;6343;50.868;4.700;2022-07-23T06:21:52;14.80;;;9.93;;
12554;SDS011;6343;50.868;4.700;2022-07-23T06:24:18;16.03;;;10.50;;
12554;SDS011;6343;50.868;4.700;2022-07-23T06:26:44;12.87;;;10.90;;
12554;SDS011;6343;50.868;4.700;2022-07-23T06:29:10;12.33;;;10.20;;
12554;SDS011;6343;50.868;4.700;2022-07-23T06:31:37;14.57;;;10.90;;
12554;SDS011;6343;50.868;4.700;2022-07-23T06:34:03;14.83;;;10.70;;
12554;SDS011;6343;50.868;4.700;2022-07-23T06:36:29;12.87;;;10.60;;
12554;SDS011;6343;50.868;4.700;2022-07-23T06:38:55;14.30;;;10.33;;
12554;SDS011;6343;50.868;4.700;2022-07-23T06:41:21;12.53;;;10.43;;
12554;SDS011;6343;50.868;4.700;2022-07-23T06:43:50;15.43;;;9.90;;
12554;SDS011;6343;50.868;4.700;2022-07-23T06:46:16;14.43;;;10.93;;
12554;SDS011;6343;50.868;4.700;2022-07-23T06:48:42;15.10;;;10.60;;
12554;SDS011;6343;50.868;4.700;2022-07-23T06:51:08;13.67;;;9.23;;
12554;SDS011;6343;50.868;4.700;2022-07-23T06:53:34;14.27;;;10.30;;
12554;SDS011;6343;50.868;4.700;2022-07-23T06:56:00;13.67;;;10.10;;
12554;SDS011;6343;50.868;4.700;2022-07-23T06:58:26;13.90;;;9.43;;
12554;SDS011;6343;50.868;4.700;2022-07-23T07:00:52;14.77;;;9.27;;
12554;SDS011;6343;50.868;4.700;2022-07-23T07:03:18;13.80;;;10.23;;
12554;SDS011;6343;50.868;4.700;2022-07-23T07:05:45;13.03;;;9.13;;
12554;SDS011;6343;50.868;4.700;2022-07-23T07:08:11;16.13;;;9.27;;
12554;SDS011;6343;50.868;4.700;2022-07-23T07:10:37;9.67;;;8.67;;
12554;SDS011;6343;50.868;4.700;2022-07-23T07:13:03;10.53;;;8.70;;
12554;SDS011;6343;50.868;4.700;2022-07-23T07:15:29;11.00;;;8.03;;
12554;SDS011;6343;50.868;4.700;2022-07-23T07:17:55;12.00;;;8.97;;
12554;SDS011;6343;50.868;4.700;2022-07-23T07:20:21;11.47;;;8.80;;
12554;SDS011;6343;50.868;4.700;2022-07-23T07:22:48;12.77;;;8.93;;
12554;SDS011;6343;50.868;4.700;2022-07-23T07:25:14;11.13;;;8.73;;
12554;SDS011;6343;50.868;4.700;2022-07-23T07:27:41;11.13;;;9.13;;
12554;SDS011;6343;50.868;4.700;2022-07-23T07:30:09;13.53;;;9.23;;
12554;SDS011;6343;50.868;4.700;2022-07-23T07:32:35;12.83;;;8.93;;
12554;SDS011;6343;50.868;4.700;2022-07-23T07:35:02;14.87;;;8.17;;
12554;SDS011;6343;50.868;4.700;2022-07-23T07:37:29;12.07;;;8.63;;
12554;SDS011;6343;50.868;4.700;2022-07-23T07:39:55;18.27;;;8.95;;
12554;SDS011;6343;50.868;4.700;2022-07-23T07:42:21;12.70;;;8.38;;
12554;SDS011;6343;50.868;4.700;2022-07-23T07:44:47;9.45;;;8.45;;
12554;SDS011;6343;50.868;4.700;2022-07-23T07:47:13;16.98;;;9.20;;
12554;SDS011;6343;50.868;4.700;2022-07-23T07:49:43;11.00;;;8.00;;
12554;SDS011;6343;50.868;4.700;2022-07-23T07:52:10;14.07;;;8.45;;
12554;SDS011;6343;50.868;4.700;2022-07-23T07:54:36;10.38;;;8.45;;
12554;SDS011;6343;50.868;4.700;2022-07-23T07:57:03;10.23;;;8.48;;
12554;SDS011;6343;50.868;4.700;2022-07-23T07:59:29;12.45;;;8.40;;
12554;SDS011;6343;50.868;4.700;2022-07-23T08:01:55;10.38;;;8.52;;
12554;SDS011;6343;50.868;4.700;2022-07-23T08:04:21;12.43;;;9.18;;
12554;SDS011;6343;50.868;4.700;2022-07-23T08:06:47;11.60;;;8.05;;
12554;SDS011;6343;50.868;4.700;2022-07-23T08:09:13;8.93;;;7.57;;
12554;SDS011;6343;50.868;4.700;2022-07-23T08:11:40;8.85;;;7.15;;
12554;SDS011;6343;50.868;4.700;2022-07-23T08:14:06;9.60;;;7.00;;
12554;SDS011;6343;50.868;4.700;2022-07-23T08:16:32;9.82;;;7.07;;
12554;SDS011;6343;50.868;4.700;2022-07-23T08:18:58;11.00;;;6.68;;
12554;SDS011;6343;50.868;4.700;2022-07-23T08:21:24;10.95;;;7.20;;
12554;SDS011;6343;50.868;4.700;2022-07-23T08:23:50;7.50;;;5.97;;
12554;SDS011;6343;50.868;4.700;2022-07-23T08:26:16;8.98;;;6.40;;
12554;SDS011;6343;50.868;4.700;2022-07-23T08:28:42;8.18;;;6.82;;
12554;SDS011;6343;50.868;4.700;2022-07-23T08:31:08;10.55;;;7.07;;
12554;SDS011;6343;50.868;4.700;2022-07-23T08:33:36;8.88;;;6.45;;
12554;SDS011;6343;50.868;4.700;2022-07-23T08:36:03;11.00;;;7.20;;
12554;SDS011;6343;50.868;4.700;2022-07-23T08:38:29;10.68;;;7.03;;
12554;SDS011;6343;50.868;4.700;2022-07-23T08:40:56;9.10;;;6.30;;
12554;SDS011;6343;50.868;4.700;2022-07-23T08:43:23;8.35;;;5.88;;
12554;SDS011;6343;50.868;4.700;2022-07-23T08:45:50;8.77;;;5.53;;
12554;SDS011;6343;50.868;4.700;2022-07-23T08:48:17;10.63;;;6.78;;
12554;SDS011;6343;50.868;4.700;2022-07-23T08:50:54;6.78;;;5.72;;
12554;SDS011;6343;50.868;4.700;2022-07-23T08:53:21;8.90;;;5.80;;
12554;SDS011;6343;50.868;4.700;2022-07-23T08:55:52;7.97;;;5.72;;
12554;SDS011;6343;50.868;4.700;2022-07-23T08:58:19;9.57;;;6.07;;
12554;SDS011;6343;50.868;4.700;2022-07-23T09:00:45;6.07;;;5.32;;
12554;SDS011;6343;50.868;4.700;2022-07-23T09:03:22;11.55;;;6.47;;
12554;SDS011;6343;50.868;4.700;2022-07-23T09:05:51;8.25;;;5.97;;
12554;SDS011;6343;50.868;4.700;2022-07-23T09:08:18;10.82;;;5.95;;
12554;SDS011;6343;50.868;4.700;2022-07-23T09:10:56;9.43;;;5.75;;
12554;SDS011;6343;50.868;4.700;2022-07-23T09:16:00;7.90;;;5.32;;
12554;SDS011;6343;50.868;4.700;2022-07-23T09:18:30;6.22;;;5.57;;
12554;SDS011;6343;50.868;4.700;2022-07-23T09:23:56;8.57;;;5.53;;
12554;SDS011;6343;50.868;4.700;2022-07-23T09:28:56;7.18;;;5.18;;
12554;SDS011;6343;50.868;4.700;2022-07-23T09:31:23;6.63;;;4.97;;
12554;SDS011;6343;50.868;4.700;2022-07-23T09:33:49;5.65;;;4.30;;
12554;SDS011;6343;50.868;4.700;2022-07-23T09:36:18;6.90;;;4.15;;
12554;SDS011;6343;50.868;4.700;2022-07-23T09:38:52;5.30;;;4.15;;
12554;SDS011;6343;50.868;4.700;2022-07-23T09:41:18;5.63;;;4.50;;
12554;SDS011;6343;50.868;4.700;2022-07-23T09:43:44;4.85;;;4.20;;
12554;SDS011;6343;50.868;4.700;2022-07-23T09:46:44;7.38;;;4.82;;
12554;SDS011;6343;50.868;4.700;2022-07-23T09:49:15;5.95;;;4.45;;
12554;SDS011;6343;50.868;4.700;2022-07-23T09:51:45;6.90;;;4.28;;
12554;SDS011;6343;50.868;4.700;2022-07-23T09:54:19;7.68;;;5.40;;
12554;SDS011;6343;50.868;4.700;2022-07-23T09:56:46;6.70;;;5.18;;
12554;SDS011;6343;50.868;4.700;2022-07-23T09:59:13;6.13;;;4.50;;
12554;SDS011;6343;50.868;4.700;2022-07-23T10:01:42;7.35;;;4.68;;
12554;SDS011;6343;50.868;4.700;2022-07-23T10:04:08;6.05;;;4.70;;
12554;SDS011;6343;50.868;4.700;2022-07-23T10:06:36;6.53;;;5.00;;
12554;SDS011;6343;50.868;4.700;2022-07-23T10:09:03;7.07;;;4.35;;
12554;SDS011;6343;50.868;4.700;2022-07-23T10:11:30;6.97;;;4.43;;
12554;SDS011;6343;50.868;4.700;2022-07-23T10:13:57;5.60;;;3.55;;
12554;SDS011;6343;50.868;4.700;2022-07-23T10:16:25;4.60;;;2.70;;
12554;SDS011;6343;50.868;4.700;2022-07-23T10:18:51;4.65;;;2.80;;
12554;SDS011;6343;50.868;4.700;2022-07-23T10:24:21;4.47;;;2.33;;
12554;SDS011;6343;50.868;4.700;2022-07-23T10:32:16;5.65;;;2.70;;
12554;SDS011;6343;50.868;4.700;2022-07-23T10:35:07;3.00;;;2.45;;
12554;SDS011;6343;50.868;4.700;2022-07-23T10:37:34;5.95;;;2.78;;
12554;SDS011;6343;50.868;4.700;2022-07-23T10:40:09;3.55;;;2.10;;
12554;SDS011;6343;50.868;4.700;2022-07-23T10:42:35;2.22;;;1.65;;
12554;SDS011;6343;50.868;4.700;2022-07-23T10:45:02;3.50;;;2.15;;
12554;SDS011;6343;50.868;4.700;2022-07-23T10:47:47;5.53;;;2.13;;
12554;SDS011;6343;50.868;4.700;2022-07-23T10:58:00;5.15;;;2.33;;
12554;SDS011;6343;50.868;4.700;2022-07-23T11:00:27;3.58;;;2.40;;
12554;SDS011;6343;50.868;4.700;2022-07-23T11:02:58;5.38;;;2.22;;
12554;SDS011;6343;50.868;4.700;2022-07-23T11:05:25;20.00;;;2.78;;
12554;SDS011;6343;50.868;4.700;2022-07-23T11:36:58;4.63;;;2.00;;
12554;SDS011;6343;50.868;4.700;2022-07-23T11:39:25;5.20;;;2.05;;
12554;SDS011;6343;50.868;4.700;2022-07-23T11:41:52;3.97;;;2.35;;
12554;SDS011;6343;50.868;4.700;2022-07-23T11:44:28;3.53;;;2.58;;
12554;SDS011;6343;50.868;4.700;2022-07-23T11:46:58;2.95;;;2.30;;
12554;SDS011;6343;50.868;4.700;2022-07-23T11:49:25;3.35;;;2.22;;
12554;SDS011;6343;50.868;4.700;2022-07-23T11:52:10;2.95;;;1.83;;
12554;SDS011;6343;50.868;4.700;2022-07-23T11:54:46;4.03;;;2.30;;
12554;SDS011;6343;50.868;4.700;2022-07-23T11:57:12;5.05;;;2.42;;
12554;SDS011;6343;50.868;4.700;2022-07-23T11:59:38;2.90;;;2.60;;
12554;SDS011;6343;50.868;4.700;2022-07-23T12:02:05;3.75;;;2.50;;
12554;SDS011;6343;50.868;4.700;2022-07-23T12:04:41;7.40;;;2.80;;
12554;SDS011;6343;50.868;4.700;2022-07-23T12:09:53;4.07;;;2.63;;
12554;SDS011;6343;50.868;4.700;2022-07-23T12:12:19;3.53;;;2.75;;
12554;SDS011;6343;50.868;4.700;2022-07-23T12:14:52;4.38;;;2.92;;
12554;SDS011;6343;50.868;4.700;2022-07-23T12:17:19;5.30;;;2.95;;
12554;SDS011;6343;50.868;4.700;2022-07-23T12:19:46;2.92;;;2.63;;
12554;SDS011;6343;50.868;4.700;2022-07-23T12:22:12;5.55;;;2.92;;
12554;SDS011;6343;50.868;4.700;2022-07-23T12:24:55;3.60;;;2.63;;
12554;SDS011;6343;50.868;4.700;2022-07-23T12:27:22;4.38;;;2.40;;
12554;SDS011;6343;50.868;4.700;2022-07-23T12:29:49;3.17;;;2.58;;
12554;SDS011;6343;50.868;4.700;2022-07-23T12:32:19;3.40;;;2.63;;
12554;SDS011;6343;50.868;4.700;2022-07-23T12:34:45;2.83;;;2.38;;
12554;SDS011;6343;50.868;4.700;2022-07-23T12:37:25;6.03;;;3.90;;
12554;SDS011;6343;50.868;4.700;2022-07-23T12:39:51;3.53;;;2.63;;
12554;SDS011;6343;50.868;4.700;2022-07-23T12:42:18;3.13;;;2.50;;
12554;SDS011;6343;50.868;4.700;2022-07-23T12:45:07;6.50;;;3.10;;
12554;SDS011;6343;50.868;4.700;2022-07-23T12:48:19;2.70;;;2.50;;
12554;SDS011;6343;50.868;4.700;2022-07-23T12:50:33;3.28;;;2.60;;
12554;SDS011;6343;50.868;4.700;2022-07-23T12:53:06;4.18;;;3.00;;
12554;SDS011;6343;50.868;4.700;2022-07-23T12:55:32;4.93;;;3.20;;
12554;SDS011;6343;50.868;4.700;2022-07-23T12:58:02;3.17;;;2.45;;
12554;SDS011;6343;50.868;4.700;2022-07-23T13:00:29;2.50;;;2.30;;
12554;SDS011;6343;50.868;4.700;2022-07-23T13:02:56;4.30;;;2.90;;
12554;SDS011;6343;50.868;4.700;2022-07-23T13:05:22;4.32;;;2.70;;
12554;SDS011;6343;50.868;4.700;2022-07-23T13:07:48;2.60;;;2.38;;
12554;SDS011;6343;50.868;4.700;2022-07-23T13:10:14;2.42;;;2.22;;
12554;SDS011;6343;50.868;4.700;2022-07-23T13:12:40;3.22;;;2.22;;
12554;SDS011;6343;50.868;4.700;2022-07-23T13:15:06;4.28;;;2.28;;
12554;SDS011;6343;50.868;4.700;2022-07-23T13:17:32;3.03;;;2.60;;
12554;SDS011;6343;50.868;4.700;2022-07-23T13:19:58;2.85;;;2.28;;
12554;SDS011;6343;50.868;4.700;2022-07-23T13:22:24;4.20;;;2.60;;
12554;SDS011;6343;50.868;4.700;2022-07-23T13:24:50;3.40;;;2.38;;
12554;SDS011;6343;50.868;4.700;2022-07-23T13:27:17;3.38;;;2.70;;
12554;SDS011;6343;50.868;4.700;2022-07-23T13:29:43;5.93;;;2.90;;
12554;SDS011;6343;50.868;4.700;2022-07-23T13:32:09;4.22;;;2.92;;
12554;SDS011;6343;50.868;4.700;2022-07-23T13:34:35;5.18;;;2.90;;
12554;SDS011;6343;50.868;4.700;2022-07-23T13:37:02;5.38;;;2.88;;
12554;SDS011;6343;50.868;4.700;2022-07-23T13:39:28;3.72;;;2.67;;
12554;SDS011;6343;50.868;4.700;2022-07-23T13:41:54;14.13;;;3.08;;
12554;SDS011;6343;50.868;4.700;2022-07-23T13:44:22;3.95;;;2.60;;
12554;SDS011;6343;50.868;4.700;2022-07-23T13:46:48;3.45;;;3.15;;
12554;SDS011;6343;50.868;4.700;2022-07-23T13:49:14;5.03;;;2.70;;
12554;SDS011;6343;50.868;4.700;2022-07-23T13:51:40;7.40;;;2.80;;
12554;SDS011;6343;50.868;4.700;2022-07-23T13:54:07;19.77;;;4.10;;
12554;SDS011;6343;50.868;4.700;2022-07-23T13:56:33;29.70;;;4.80;;
12554;SDS011;6343;50.868;4.700;2022-07-23T13:58:59;15.65;;;3.75;;
12554;SDS011;6343;50.868;4.700;2022-07-23T14:01:25;6.03;;;3.92;;
12554;SDS011;6343;50.868;4.700;2022-07-23T14:03:51;3.67;;;2.70;;
12554;SDS011;6343;50.868;4.700;2022-07-23T14:06:17;7.43;;;2.40;;
12554;SDS011;6343;50.868;4.700;2022-07-23T14:08:43;7.32;;;3.08;;
12554;SDS011;6343;50.868;4.700;2022-07-23T14:11:10;8.32;;;3.90;;
12554;SDS011;6343;50.868;4.700;2022-07-23T14:13:36;4.88;;;3.35;;
12554;SDS011;6343;50.868;4.700;2022-07-23T14:16:02;5.68;;;3.28;;
12554;SDS011;6343;50.868;4.700;2022-07-23T14:18:28;4.50;;;3.40;;
12554;SDS011;6343;50.868;4.700;2022-07-23T14:20:54;6.35;;;2.85;;
12554;SDS011;6343;50.868;4.700;2022-07-23T14:23:20;4.47;;;3.17;;
12554;SDS011;6343;50.868;4.700;2022-07-23T14:25:46;4.00;;;2.88;;
12554;SDS011;6343;50.868;4.700;2022-07-23T14:28:12;21.85;;;3.95;;
12554;SDS011;6343;50.868;4.700;2022-07-23T14:30:38;4.70;;;3.35;;
12554;SDS011;6343;50.868;4.700;2022-07-23T14:33:04;4.55;;;3.15;;
12554;SDS011;6343;50.868;4.700;2022-07-23T14:35:30;4.65;;;2.78;;
12554;SDS011;6343;50.868;4.700;2022-07-23T14:37:57;3.60;;;3.20;;
12554;SDS011;6343;50.868;4.700;2022-07-23T14:40:23;8.07;;;3.28;;
12554;SDS011;6343;50.868;4.700;2022-07-23T14:42:49;4.78;;;3.38;;
12554;SDS011;6343;50.868;4.700;2022-07-23T14:45:15;4.63;;;3.88;;
12554;SDS011;6343;50.868;4.700;2022-07-23T14:47:41;4.32;;;3.22;;
12554;SDS011;6343;50.868;4.700;2022-07-23T14:50:07;5.10;;;3.10;;
12554;SDS011;6343;50.868;4.700;2022-07-23T14:52:33;3.45;;;3.05;;
12554;SDS011;6343;50.868;4.700;2022-07-23T14:54:59;3.35;;;3.05;;
12554;SDS011;6343;50.868;4.700;2022-07-23T14:57:26;4.68;;;3.05;;
12554;SDS011;6343;50.868;4.700;2022-07-23T14:59:52;5.10;;;2.78;;
12554;SDS011;6343;50.868;4.700;2022-07-23T15:02:18;6.40;;;3.28;;
12554;SDS011;6343;50.868;4.700;2022-07-23T15:04:44;3.33;;;2.92;;
12554;SDS011;6343;50.868;4.700;2022-07-23T15:07:10;5.55;;;3.20;;
12554;SDS011;6343;50.868;4.700;2022-07-23T15:09:36;4.88;;;3.15;;
12554;SDS011;6343;50.868;4.700;2022-07-23T15:12:03;3.65;;;3.35;;
12554;SDS011;6343;50.868;4.700;2022-07-23T15:14:29;6.43;;;4.10;;
12554;SDS011;6343;50.868;4.700;2022-07-23T15:16:55;3.78;;;3.42;;
12554;SDS011;6343;50.868;4.700;2022-07-23T15:19:21;3.60;;;3.30;;
12554;SDS011;6343;50.868;4.700;2022-07-23T15:21:47;4.78;;;3.38;;
12554;SDS011;6343;50.868;4.700;2022-07-23T15:24:13;7.50;;;3.88;;
12554;SDS011;6343;50.868;4.700;2022-07-23T15:26:39;6.95;;;3.97;;
12554;SDS011;6343;50.868;4.700;2022-07-23T15:29:05;4.32;;;3.55;;
12554;SDS011;6343;50.868;4.700;2022-07-23T15:31:32;5.78;;;3.38;;
12554;SDS011;6343;50.868;4.700;2022-07-23T15:33:58;5.78;;;3.30;;
12554;SDS011;6343;50.868;4.700;2022-07-23T15:36:24;6.95;;;4.10;;
12554;SDS011;6343;50.868;4.700;2022-07-23T15:38:50;5.57;;;3.47;;
12554;SDS011;6343;50.868;4.700;2022-07-23T15:41:16;6.18;;;4.35;;
12554;SDS011;6343;50.868;4.700;2022-07-23T15:43:42;6.53;;;3.90;;
12554;SDS011;6343;50.868;4.700;2022-07-23T15:46:08;7.07;;;3.97;;